createdAt,value
2024-02-19T00:01:14.231Z,22.52
2024-02-19T00:03:41.382Z,20.77
2024-02-19T00:06:08.577Z,19.85
2024-02-19T00:08:35.750Z,28.15
2024-02-19T00:11:02.876Z,22.40
2024-02-19T00:13:30.064Z,27.38
2024-02-19T00:15:57.421Z,20.27
2024-02-19T00:18:24.731Z,25.50
2024-02-19T00:20:52.365Z,22.42
2024-02-19T00:23:19.365Z,23.65
2024-02-19T00:25:46.464Z,32.38
2024-02-19T00:28:13.968Z,29.25
2024-02-19T00:30:41.220Z,24.70
2024-02-19T00:33:08.810Z,31.77
2024-02-19T00:35:35.922Z,28.23
2024-02-19T00:38:03.489Z,20.75
2024-02-19T00:40:30.487Z,19.75
2024-02-19T00:42:57.650Z,24.52
2024-02-19T00:45:25.338Z,25.42
2024-02-19T00:47:52.455Z,25.00
2024-02-19T00:50:19.892Z,32.22
2024-02-19T00:52:47.098Z,25.13
2024-02-19T00:55:14.188Z,22.08
2024-02-19T00:57:41.227Z,26.48
2024-02-19T01:00:09.425Z,32.22
2024-02-19T01:02:37.225Z,28.52
2024-02-19T01:05:05.363Z,29.20
2024-02-19T01:07:32.956Z,29.75
2024-02-19T01:10:00.200Z,25.23
2024-02-19T01:12:27.306Z,27.33
2024-02-19T01:14:54.359Z,22.30
2024-02-19T01:17:21.831Z,22.77
2024-02-19T01:19:48.975Z,24.15
2024-02-19T01:22:16.794Z,28.20
2024-02-19T01:24:43.999Z,26.80
2024-02-19T01:27:11.614Z,23.60
2024-02-19T01:29:38.892Z,29.42
2024-02-19T01:32:06.003Z,28.75
2024-02-19T01:34:33.286Z,23.42
2024-02-19T01:37:00.579Z,31.40
2024-02-19T01:39:27.907Z,19.98
2024-02-19T01:41:55.608Z,24.95
2024-02-19T01:44:22.944Z,26.13
2024-02-19T01:46:50.752Z,25.90
2024-02-19T01:49:18.590Z,25.15
2024-02-19T01:51:46.541Z,23.92
2024-02-19T01:54:15.658Z,29.65
2024-02-19T01:56:44.259Z,23.67
2024-02-19T01:59:12.172Z,23.55
2024-02-19T02:01:41.094Z,31.20
2024-02-19T02:04:09.605Z,26.00
2024-02-19T02:06:37.230Z,19.80
2024-02-19T02:09:05.082Z,27.90
2024-02-19T02:11:32.247Z,28.92
2024-02-19T02:13:59.310Z,20.58
2024-02-19T02:16:27.487Z,21.60
2024-02-19T02:18:55.512Z,29.23
2024-02-19T02:21:23.484Z,25.23
2024-02-19T02:23:50.819Z,22.75
2024-02-19T02:26:18.121Z,31.73
2024-02-19T02:28:45.217Z,22.02
2024-02-19T02:31:12.377Z,21.70
2024-02-19T02:33:39.776Z,21.90
2024-02-19T02:36:10.702Z,17.42
2024-02-19T02:38:37.758Z,23.48
2024-02-19T02:41:04.904Z,26.98
2024-02-19T02:43:32.051Z,32.22
2024-02-19T02:45:59.503Z,25.20
2024-02-19T02:48:26.652Z,21.85
2024-02-19T02:50:53.764Z,22.40
2024-02-19T02:53:23.312Z,21.48
2024-02-19T02:55:50.827Z,25.95
2024-02-19T02:58:18.010Z,23.60
2024-02-19T03:00:45.229Z,28.08
2024-02-19T03:03:12.732Z,25.35
2024-02-19T03:05:40.318Z,19.60
2024-02-19T03:08:08.415Z,23.50
2024-02-19T03:10:36.150Z,23.20
2024-02-19T03:13:04.280Z,21.70
2024-02-19T03:15:31.444Z,22.83
2024-02-19T03:17:58.517Z,21.65
2024-02-19T03:20:26.060Z,24.80
2024-02-19T03:22:54.529Z,21.05
2024-02-19T03:25:21.625Z,26.48
2024-02-19T03:27:50.289Z,24.55
2024-02-19T03:30:18.307Z,28.48
2024-02-19T03:32:45.841Z,35.85
2024-02-19T03:35:13.648Z,26.08
2024-02-19T03:37:40.700Z,15.13
2024-02-19T03:40:10.241Z,24.60
2024-02-19T03:42:37.674Z,29.77
2024-02-19T03:45:06.076Z,21.48
2024-02-19T03:47:33.606Z,31.85
2024-02-19T03:50:00.860Z,30.58
2024-02-19T03:52:28.294Z,27.00
2024-02-19T03:54:55.961Z,36.40
2024-02-19T03:57:23.952Z,21.98
2024-02-19T03:59:51.238Z,28.42
2024-02-19T04:02:19.309Z,27.33
2024-02-19T04:04:46.933Z,25.23
2024-02-19T04:07:14.154Z,28.42
2024-02-19T04:09:41.431Z,27.60
2024-02-19T04:12:09.647Z,29.75
2024-02-19T04:14:40.025Z,29.52
2024-02-19T04:17:07.381Z,29.60
2024-02-19T04:19:34.550Z,18.83
2024-02-19T04:22:01.732Z,25.27
2024-02-19T04:24:29.030Z,24.67
2024-02-19T04:26:56.086Z,26.50
2024-02-19T04:29:23.701Z,32.15
2024-02-19T04:31:50.897Z,25.25
2024-02-19T04:34:18.152Z,31.83
2024-02-19T04:36:45.465Z,28.33
2024-02-19T04:39:12.533Z,37.25
2024-02-19T04:41:39.849Z,40.47
2024-02-19T04:44:07.400Z,23.35
2024-02-19T04:46:35.527Z,34.03
2024-02-19T04:49:02.833Z,25.48
2024-02-19T04:51:30.134Z,26.02
2024-02-19T04:53:57.170Z,29.85
2024-02-19T04:56:24.336Z,29.40
2024-02-19T04:58:51.278Z,25.30
2024-02-19T05:01:18.478Z,26.83
2024-02-19T05:03:45.733Z,22.20
2024-02-19T05:06:13.216Z,23.75
2024-02-19T05:08:40.215Z,30.95
2024-02-19T05:11:08.281Z,30.30
2024-02-19T05:13:38.481Z,27.10
2024-02-19T05:16:07.901Z,23.92
2024-02-19T05:18:35.210Z,24.40
2024-02-19T05:21:03.955Z,24.95
2024-02-19T05:23:32.137Z,29.90
2024-02-19T05:25:59.539Z,27.55
2024-02-19T05:28:26.635Z,28.13
2024-02-19T05:30:54.120Z,27.58
2024-02-19T05:33:21.437Z,26.17
2024-02-19T05:35:48.701Z,24.90
2024-02-19T05:38:15.794Z,27.83
2024-02-19T05:40:42.848Z,29.60
2024-02-19T05:43:09.945Z,30.85
2024-02-19T05:45:37.252Z,29.25
2024-02-19T05:48:04.882Z,29.45
2024-02-19T05:50:33.217Z,29.73
2024-02-19T05:53:00.635Z,38.58
2024-02-19T05:55:28.885Z,31.70
2024-02-19T05:57:56.150Z,32.15
2024-02-19T06:00:23.255Z,26.50
2024-02-19T06:02:50.446Z,29.35
2024-02-19T06:05:17.733Z,26.00
2024-02-19T06:07:45.376Z,30.25
2024-02-19T06:10:12.888Z,23.92
2024-02-19T06:12:40.723Z,32.13
2024-02-19T06:15:08.206Z,24.80
2024-02-19T06:17:35.520Z,32.85
2024-02-19T06:20:03.129Z,32.38
2024-02-19T06:22:30.291Z,33.13
2024-02-19T06:24:57.379Z,31.88
2024-02-19T06:27:24.774Z,31.95
2024-02-19T06:29:51.780Z,34.25
2024-02-19T06:32:18.985Z,31.15
2024-02-19T06:34:46.205Z,32.85
2024-02-19T06:37:13.850Z,25.20
2024-02-19T06:39:42.515Z,27.35
2024-02-19T06:42:09.552Z,33.67
2024-02-19T06:44:36.621Z,25.25
2024-02-19T06:47:03.782Z,30.27
2024-02-19T06:49:30.880Z,27.42
2024-02-19T06:51:58.403Z,23.50
2024-02-19T06:54:29.333Z,27.95
2024-02-19T06:56:58.286Z,32.15
2024-02-19T06:59:25.265Z,33.42
2024-02-19T07:01:52.564Z,29.95
2024-02-19T07:04:20.749Z,36.33
2024-02-19T07:06:48.363Z,34.10
2024-02-19T07:09:16.259Z,33.85
2024-02-19T07:11:43.494Z,30.55
2024-02-19T07:14:10.529Z,30.75
2024-02-19T07:16:37.884Z,29.77
2024-02-19T07:19:05.004Z,29.30
2024-02-19T07:21:32.132Z,33.40
2024-02-19T07:23:59.153Z,43.67
2024-02-19T07:26:26.265Z,40.58
2024-02-19T07:28:53.552Z,38.83
2024-02-19T07:31:21.036Z,34.33
2024-02-19T07:33:48.483Z,35.08
2024-02-19T07:36:16.461Z,39.92
2024-02-19T07:38:43.349Z,38.65
2024-02-19T07:41:17.273Z,35.42
2024-02-19T07:43:45.298Z,40.38
2024-02-19T07:46:13.230Z,38.38
2024-02-19T07:48:40.482Z,41.67
2024-02-19T07:51:07.956Z,44.45
2024-02-19T07:53:35.677Z,47.63
2024-02-19T07:56:07.116Z,45.13
2024-02-19T07:58:35.209Z,45.85
2024-02-19T08:01:05.574Z,54.40
2024-02-19T08:03:33.778Z,48.65
2024-02-19T08:06:01.493Z,47.03
2024-02-19T08:08:29.986Z,42.78
2024-02-19T08:10:57.032Z,48.90
2024-02-19T08:13:24.282Z,46.83
2024-02-19T08:15:51.578Z,50.38
2024-02-19T08:18:18.961Z,50.40
2024-02-19T08:20:46.308Z,53.25
2024-02-19T08:23:13.603Z,47.83
2024-02-19T08:25:40.804Z,51.65
2024-02-19T08:28:08.059Z,51.20
2024-02-19T08:30:35.227Z,51.35
2024-02-19T08:33:02.322Z,54.22
2024-02-19T08:35:29.462Z,55.58
2024-02-19T08:37:57.512Z,45.53
2024-02-19T08:40:24.744Z,43.22
2024-02-19T08:42:52.173Z,54.70
2024-02-19T08:45:22.759Z,47.05
2024-02-19T08:47:51.572Z,50.33
2024-02-19T08:50:18.612Z,46.35
2024-02-19T08:52:45.679Z,47.58
2024-02-19T08:55:12.974Z,46.63
2024-02-19T08:57:40.440Z,48.08
2024-02-19T09:00:09.841Z,39.15
2024-02-19T09:02:37.096Z,58.95
2024-02-19T09:05:04.277Z,41.33
2024-02-19T09:07:31.641Z,40.03
2024-02-19T09:09:58.947Z,47.55
2024-02-19T09:12:26.251Z,48.58
2024-02-19T09:14:53.754Z,47.47
2024-02-19T09:17:20.920Z,45.78
2024-02-19T09:19:48.001Z,48.63
2024-02-19T09:22:16.130Z,43.95
2024-02-19T09:24:45.842Z,44.75
2024-02-19T09:27:12.871Z,42.90
2024-02-19T09:29:39.975Z,42.33
2024-02-19T09:32:07.750Z,46.85
2024-02-19T09:34:35.502Z,40.28
2024-02-19T09:37:02.847Z,51.22
2024-02-19T09:39:30.066Z,44.67
2024-02-19T09:41:57.164Z,36.95
2024-02-19T09:44:24.242Z,37.75
2024-02-19T09:46:56.432Z,40.22
2024-02-19T09:49:28.261Z,39.67
2024-02-19T09:51:57.913Z,40.95
2024-02-19T09:54:26.528Z,32.97
2024-02-19T09:56:56.121Z,36.78
2024-02-19T09:59:23.811Z,41.20
2024-02-19T10:01:50.994Z,32.40
2024-02-19T10:04:18.248Z,36.47
2024-02-19T10:06:46.825Z,36.42
2024-02-19T10:09:15.499Z,30.85
2024-02-19T10:11:42.582Z,37.00
2024-02-19T10:14:11.881Z,33.70
2024-02-19T10:16:41.545Z,29.85
2024-02-19T10:19:10.566Z,33.67
2024-02-19T10:21:38.325Z,35.75
2024-02-19T10:24:06.396Z,27.77
2024-02-19T10:26:34.070Z,32.63
2024-02-19T10:29:01.219Z,29.80
2024-02-19T10:31:29.522Z,29.65
2024-02-19T10:33:56.995Z,22.52
2024-02-19T10:36:24.813Z,27.30
2024-02-19T10:38:52.807Z,27.08
2024-02-19T10:41:22.449Z,32.83
2024-02-19T10:43:50.866Z,23.85
2024-02-19T10:46:22.175Z,28.38
2024-02-19T10:48:51.218Z,27.17
2024-02-19T10:51:20.859Z,28.35
2024-02-19T10:53:48.251Z,28.83
2024-02-19T10:56:20.226Z,27.20
2024-02-19T10:58:57.573Z,28.70
2024-02-19T11:01:25.628Z,27.35
2024-02-19T11:03:52.946Z,31.08
2024-02-19T11:06:25.551Z,25.70
2024-02-19T11:08:57.471Z,25.60
2024-02-19T11:11:26.181Z,31.23
2024-02-19T11:13:53.567Z,28.85
2024-02-19T11:16:21.314Z,37.25
2024-02-19T11:18:53.235Z,31.30
2024-02-19T11:21:21.925Z,32.20
2024-02-19T11:23:48.923Z,34.17
2024-02-19T11:26:15.873Z,36.75
2024-02-19T11:28:43.691Z,28.58
2024-02-19T11:31:15.044Z,38.05
2024-02-19T11:33:42.272Z,33.15
2024-02-19T11:36:09.567Z,28.17
2024-02-19T11:38:40.317Z,25.42
2024-02-19T11:41:11.189Z,32.42
2024-02-19T11:43:42.048Z,37.97
2024-02-19T11:46:09.199Z,33.17
2024-02-19T11:48:37.575Z,30.83
2024-02-19T11:51:06.559Z,30.30
2024-02-19T11:53:33.959Z,33.47
2024-02-19T11:56:02.164Z,34.45
2024-02-19T11:58:29.971Z,43.60
2024-02-19T12:00:58.209Z,49.35
2024-02-19T12:03:26.737Z,33.50
2024-02-19T12:05:54.758Z,45.10
2024-02-19T12:08:22.047Z,30.77
2024-02-19T12:10:49.206Z,28.80
2024-02-19T12:13:17.992Z,31.92
2024-02-19T12:15:52.432Z,29.55
2024-02-19T12:18:20.084Z,30.48
2024-02-19T12:20:47.265Z,30.48
2024-02-19T12:23:15.967Z,26.90
2024-02-19T12:25:43.566Z,32.15
2024-02-19T12:28:10.955Z,32.13
2024-02-19T12:30:38.027Z,35.92
2024-02-19T12:33:05.793Z,31.58
2024-02-19T12:35:32.989Z,37.95
2024-02-19T12:38:01.218Z,26.60
2024-02-19T12:40:28.722Z,29.55
2024-02-19T12:42:56.090Z,23.52
2024-02-19T12:45:23.249Z,27.73
2024-02-19T12:47:50.573Z,29.52
2024-02-19T12:50:19.135Z,28.30
2024-02-19T12:52:46.725Z,25.02
2024-02-19T12:55:16.721Z,26.08
2024-02-19T12:57:47.752Z,31.17
2024-02-19T13:00:15.050Z,30.85
2024-02-19T13:02:42.211Z,35.97
2024-02-19T13:05:09.496Z,29.05
2024-02-19T13:07:37.080Z,37.92
2024-02-19T13:10:04.334Z,18.90
2024-02-19T13:12:32.702Z,17.52
2024-02-19T13:15:00.992Z,21.98
2024-02-19T13:17:35.734Z,21.13
2024-02-19T13:20:07.851Z,20.38
2024-02-19T13:22:34.965Z,25.70
2024-02-19T13:25:02.298Z,17.63
2024-02-19T13:27:29.410Z,19.45
2024-02-19T13:29:56.468Z,19.42
2024-02-19T13:32:24.116Z,19.13
2024-02-19T13:34:51.392Z,18.73
2024-02-19T13:37:19.658Z,18.27
2024-02-19T13:39:46.822Z,17.75
2024-02-19T13:42:14.852Z,19.27
2024-02-19T13:44:42.830Z,17.35
2024-02-19T13:47:12.284Z,23.42
2024-02-19T13:49:39.860Z,13.70
2024-02-19T13:52:09.404Z,18.05
2024-02-19T13:54:36.449Z,18.13
2024-02-19T13:57:04.880Z,17.98
2024-02-19T13:59:32.142Z,19.15
2024-02-19T14:01:59.881Z,13.73
2024-02-19T14:04:27.036Z,19.40
2024-02-19T14:06:54.696Z,15.98
2024-02-19T14:09:21.777Z,12.30
2024-02-19T14:11:49.317Z,22.90
2024-02-19T14:14:17.629Z,18.13
2024-02-19T14:16:44.934Z,20.23
2024-02-19T14:19:12.089Z,16.50
2024-02-19T14:21:39.254Z,19.92
2024-02-19T14:24:06.334Z,15.95
2024-02-19T14:26:33.327Z,14.93
2024-02-19T14:29:07.136Z,26.17
2024-02-19T14:31:34.807Z,18.33
2024-02-19T14:34:02.163Z,19.98
2024-02-19T14:36:29.307Z,17.80
2024-02-19T14:38:56.405Z,20.08
2024-02-19T14:41:23.453Z,20.48
2024-02-19T14:43:50.536Z,17.25
2024-02-19T14:46:17.971Z,23.73
2024-02-19T14:48:46.914Z,19.13
2024-02-19T14:51:17.529Z,18.95
2024-02-19T14:53:46.607Z,20.73
2024-02-19T14:56:13.794Z,16.92
2024-02-19T14:58:41.610Z,15.18
2024-02-19T15:01:08.860Z,22.13
2024-02-19T15:03:36.232Z,20.50
2024-02-19T15:06:07.689Z,19.52
2024-02-19T15:08:35.512Z,20.55
2024-02-19T15:11:03.356Z,15.73
2024-02-19T15:13:30.440Z,16.63
2024-02-19T15:15:58.023Z,14.38
2024-02-19T15:18:25.473Z,19.67
2024-02-19T15:20:53.604Z,20.42
2024-02-19T15:23:21.711Z,23.30
2024-02-19T15:25:48.849Z,23.30
2024-02-19T15:28:16.113Z,18.33
2024-02-19T15:30:44.282Z,20.48
2024-02-19T15:33:11.914Z,17.05
2024-02-19T15:35:39.078Z,21.15
2024-02-19T15:38:06.461Z,18.40
2024-02-19T15:40:34.680Z,25.65
2024-02-19T15:43:01.875Z,18.92
2024-02-19T15:45:29.104Z,19.55
2024-02-19T15:47:56.279Z,24.73
2024-02-19T15:50:23.460Z,16.77
2024-02-19T15:52:58.290Z,18.02
2024-02-19T15:55:32.216Z,22.10
2024-02-19T15:57:59.610Z,17.23
2024-02-19T16:00:26.980Z,20.80
2024-02-19T16:02:53.971Z,17.77
2024-02-19T16:05:21.210Z,22.15
2024-02-19T16:07:51.187Z,24.38
2024-02-19T16:10:18.626Z,20.75
2024-02-19T16:12:46.664Z,21.58
2024-02-19T16:15:14.538Z,29.13
2024-02-19T16:17:41.802Z,30.80
2024-02-19T16:20:09.373Z,24.70
2024-02-19T16:22:36.890Z,26.23
2024-02-19T16:25:08.307Z,25.20
2024-02-19T16:27:36.959Z,31.13
2024-02-19T16:30:06.475Z,28.02
2024-02-19T16:32:35.397Z,24.70
2024-02-19T16:35:03.066Z,19.25
2024-02-19T16:37:30.372Z,35.22
2024-02-19T16:39:57.406Z,25.60
2024-02-19T16:42:24.642Z,26.55
2024-02-19T16:44:51.686Z,25.27
2024-02-19T16:47:18.645Z,21.30
2024-02-19T16:49:46.984Z,25.75
2024-02-19T16:52:14.505Z,28.02
2024-02-19T16:54:41.523Z,25.55
2024-02-19T16:57:08.503Z,22.98
2024-02-19T16:59:36.539Z,23.23
2024-02-19T17:02:03.912Z,20.90
2024-02-19T17:04:31.101Z,22.55
2024-02-19T17:06:58.362Z,23.00
2024-02-19T17:09:25.516Z,22.33
2024-02-19T17:11:52.541Z,21.48
2024-02-19T17:14:19.480Z,23.45
2024-02-19T17:16:52.115Z,24.45
2024-02-19T17:19:21.417Z,18.47
2024-02-19T17:21:49.581Z,18.90
2024-02-19T17:24:16.799Z,24.95
2024-02-19T17:26:47.272Z,21.13
2024-02-19T17:29:14.402Z,27.50
2024-02-19T17:31:41.963Z,32.00
2024-02-19T17:34:09.151Z,24.17
2024-02-19T17:36:36.207Z,25.27
2024-02-19T17:39:05.199Z,45.83
2024-02-19T17:41:33.456Z,26.30
2024-02-19T17:44:00.724Z,23.33
2024-02-19T17:46:29.293Z,23.40
2024-02-19T17:48:56.549Z,22.60
2024-02-19T17:51:23.716Z,17.30
2024-02-19T17:53:50.766Z,21.17
2024-02-19T17:56:19.946Z,28.67
2024-02-19T17:58:47.327Z,20.00
2024-02-19T18:01:14.935Z,22.75
2024-02-19T18:03:42.089Z,31.30
2024-02-19T18:06:09.631Z,24.42
2024-02-19T18:08:37.647Z,23.30
2024-02-19T18:11:09.046Z,24.75
2024-02-19T18:13:36.618Z,26.63
2024-02-19T18:16:04.338Z,28.02
2024-02-19T18:18:31.672Z,26.83
2024-02-19T18:21:00.615Z,33.33
2024-02-19T18:23:31.037Z,38.30
2024-02-19T18:25:58.083Z,27.27
2024-02-19T18:28:26.035Z,28.02
2024-02-19T18:30:53.950Z,27.38
2024-02-19T18:33:23.317Z,23.58
2024-02-19T18:35:51.276Z,25.83
2024-02-19T18:38:19.145Z,26.83
2024-02-19T18:40:46.362Z,23.02
2024-02-19T18:43:14.108Z,26.05
2024-02-19T18:45:44.192Z,22.85
2024-02-19T18:48:11.391Z,22.48
2024-02-19T18:50:39.133Z,21.13
2024-02-19T18:53:06.590Z,28.00
2024-02-19T18:55:33.659Z,20.85
2024-02-19T18:58:02.279Z,23.45
2024-02-19T19:00:29.979Z,18.85
2024-02-19T19:02:59.722Z,25.00
2024-02-19T19:05:27.256Z,32.53
2024-02-19T19:07:55.786Z,24.42
2024-02-19T19:10:24.324Z,26.83
2024-02-19T19:12:51.488Z,20.90
2024-02-19T19:15:18.866Z,27.52
2024-02-19T19:17:46.876Z,25.63
2024-02-19T19:20:14.155Z,24.20
2024-02-19T19:22:41.546Z,26.73
2024-02-19T19:25:09.315Z,25.25
2024-02-19T19:27:36.319Z,28.50
2024-02-19T19:30:03.639Z,25.05
2024-02-19T19:32:31.516Z,22.63
2024-02-19T19:34:58.645Z,32.40
2024-02-19T19:37:26.303Z,22.88
2024-02-19T19:39:53.515Z,23.67
2024-02-19T19:42:25.312Z,21.75
2024-02-19T19:44:53.378Z,22.73
2024-02-19T19:47:20.422Z,21.80
2024-02-19T19:49:47.486Z,27.20
2024-02-19T19:52:17.568Z,29.02
2024-02-19T19:54:47.302Z,29.73
2024-02-19T19:57:14.498Z,29.70
2024-02-19T19:59:49.825Z,30.30
2024-02-19T20:02:17.395Z,31.23
2024-02-19T20:04:53.645Z,36.10
2024-02-19T20:07:21.065Z,32.33
2024-02-19T20:09:48.169Z,26.17
2024-02-19T20:12:15.522Z,28.73
2024-02-19T20:14:42.418Z,30.75
2024-02-19T20:17:10.176Z,32.97
2024-02-19T20:19:37.239Z,27.65
2024-02-19T20:22:04.871Z,31.25
2024-02-19T20:24:32.139Z,30.63
2024-02-19T20:27:02.272Z,24.08
2024-02-19T20:29:29.317Z,24.17
2024-02-19T20:31:58.657Z,23.02
2024-02-19T20:34:27.971Z,31.67
2024-02-19T20:36:55.326Z,26.42
2024-02-19T20:39:22.769Z,28.95
2024-02-19T20:41:56.264Z,33.67
2024-02-19T20:46:50.641Z,27.38
2024-02-19T20:49:17.831Z,36.03
2024-02-19T20:51:46.190Z,34.38
2024-02-19T20:54:13.235Z,24.67
2024-02-19T20:56:44.021Z,29.70
2024-02-19T20:59:11.080Z,36.30
2024-02-19T21:01:39.376Z,26.00
2024-02-19T21:04:08.632Z,30.05
2024-02-19T21:06:35.907Z,31.02
2024-02-19T21:09:03.600Z,29.33
2024-02-19T21:11:32.750Z,29.85
2024-02-19T21:14:01.397Z,24.77
2024-02-19T21:16:28.348Z,30.33
2024-02-19T21:18:55.707Z,30.42
2024-02-19T21:21:30.337Z,32.13
2024-02-19T21:24:02.910Z,28.88
2024-02-19T21:26:32.120Z,33.75
2024-02-19T21:28:59.751Z,24.67
2024-02-19T21:31:27.610Z,29.05
2024-02-19T21:33:55.086Z,33.50
2024-02-19T21:36:22.302Z,40.85
2024-02-19T21:38:50.785Z,31.25
2024-02-19T21:41:18.273Z,30.75
2024-02-19T21:43:45.548Z,26.33
2024-02-19T21:46:13.409Z,35.25
2024-02-19T21:48:41.484Z,31.98
2024-02-19T21:51:09.257Z,26.10
2024-02-19T21:53:36.352Z,29.00
2024-02-19T21:56:04.441Z,31.42
2024-02-19T21:58:31.409Z,35.47
2024-02-19T22:00:58.594Z,31.48
2024-02-19T22:03:25.856Z,38.75
2024-02-19T22:05:52.910Z,28.80
2024-02-19T22:08:19.864Z,28.10
2024-02-19T22:10:47.376Z,33.35
2024-02-19T22:13:14.573Z,33.42
2024-02-19T22:15:42.000Z,35.00
2024-02-19T22:18:09.501Z,29.45
2024-02-19T22:20:36.793Z,34.13
2024-02-19T22:23:03.997Z,31.48
2024-02-19T22:25:32.427Z,29.38
2024-02-19T22:28:01.317Z,30.67
2024-02-19T22:30:28.652Z,36.15
2024-02-19T22:32:56.217Z,31.13
2024-02-19T22:35:23.452Z,32.65
2024-02-19T22:37:51.508Z,37.47
2024-02-19T22:40:19.186Z,26.75
2024-02-19T22:42:46.316Z,25.75
2024-02-19T22:45:13.556Z,31.33
2024-02-19T22:47:40.765Z,33.22
2024-02-19T22:50:09.015Z,22.67
2024-02-19T22:52:38.892Z,31.42
2024-02-19T22:55:07.879Z,36.90
2024-02-19T22:57:35.863Z,29.00
2024-02-19T23:00:23.026Z,38.10
2024-02-19T23:02:50.334Z,29.80
2024-02-19T23:05:18.346Z,34.58
2024-02-19T23:07:46.138Z,32.92
2024-02-19T23:10:13.987Z,29.17
2024-02-19T23:12:41.719Z,31.02
2024-02-19T23:15:09.547Z,29.73
2024-02-19T23:17:36.767Z,31.13
2024-02-19T23:20:04.665Z,31.23
2024-02-19T23:22:31.733Z,30.63
2024-02-19T23:24:58.882Z,33.42
2024-02-19T23:27:25.965Z,34.83
2024-02-19T23:29:53.317Z,30.92
2024-02-19T23:32:20.320Z,35.67
2024-02-19T23:34:47.441Z,37.33
2024-02-19T23:37:14.585Z,40.60
2024-02-19T23:39:41.860Z,35.90
2024-02-19T23:42:10.517Z,33.88
2024-02-19T23:44:37.648Z,36.78
2024-02-19T23:47:05.920Z,37.53
2024-02-19T23:49:33.614Z,32.47
2024-02-19T23:52:01.279Z,33.47
2024-02-19T23:54:31.058Z,32.85
2024-02-19T23:57:00.976Z,36.25
2024-02-19T23:59:28.027Z,40.42
